createdAt,value
2022-09-07T00:00:25.249Z,100137.00
2022-09-07T00:02:55.884Z,100132.47
2022-09-07T00:05:28.268Z,100132.25
2022-09-07T00:07:59.486Z,100138.69
2022-09-07T00:10:30.817Z,100126.69
2022-09-07T00:13:01.016Z,100131.75
2022-09-07T00:15:31.205Z,100131.44
2022-09-07T00:18:01.607Z,100128.56
2022-09-07T00:20:33.075Z,100120.28
2022-09-07T00:23:03.272Z,100118.09
2022-09-07T00:25:33.375Z,100117.44
2022-09-07T00:28:03.796Z,100119.25
2022-09-07T00:30:34.000Z,100123.97
2022-09-07T00:33:04.252Z,100125.34
2022-09-07T00:35:41.108Z,100115.03
2022-09-07T00:38:11.671Z,100121.28
2022-09-07T00:40:41.640Z,100113.88
2022-09-07T00:43:16.019Z,100118.41
2022-09-07T00:45:45.988Z,100116.66
2022-09-07T00:48:19.980Z,100120.94
2022-09-07T00:50:56.801Z,100117.88
2022-09-07T00:53:31.250Z,100113.09
2022-09-07T00:56:04.048Z,100109.28
2022-09-07T00:58:37.188Z,100120.59
2022-09-07T01:01:07.864Z,100114.78
2022-09-07T01:03:41.247Z,100119.53
2022-09-07T01:06:17.025Z,100123.88
2022-09-07T01:08:51.305Z,100108.19
2022-09-07T01:11:23.648Z,100122.47
2022-09-07T01:13:55.080Z,100124.47
2022-09-07T01:16:47.212Z,100110.88
2022-09-07T01:20:03.876Z,100117.34
2022-09-07T01:22:52.598Z,100115.50
2022-09-07T01:25:38.072Z,100118.94
2022-09-07T01:28:15.076Z,100126.03
2022-09-07T01:30:53.073Z,100131.63
2022-09-07T01:33:42.324Z,100120.56
2022-09-07T01:36:23.061Z,100119.72
2022-09-07T01:38:56.246Z,100123.03
2022-09-07T01:41:31.784Z,100105.41
2022-09-07T01:44:06.927Z,100126.59
2022-09-07T01:46:44.568Z,100128.41
2022-09-07T01:49:20.091Z,100131.16
2022-09-07T01:51:57.122Z,100126.59
2022-09-07T01:54:34.045Z,100126.94
2022-09-07T01:57:09.164Z,100129.84
2022-09-07T01:59:43.998Z,100126.03
2022-09-07T02:02:18.395Z,100115.34
2022-09-07T02:04:54.752Z,100118.03
2022-09-07T02:07:29.117Z,100109.28
2022-09-07T02:10:02.139Z,100107.88
2022-09-07T02:12:38.896Z,100111.34
2022-09-07T02:15:15.511Z,100115.13
2022-09-07T02:17:49.692Z,100119.31
2022-09-07T02:20:23.189Z,100128.06
2022-09-07T02:22:57.426Z,100123.41
2022-09-07T02:25:30.720Z,100125.56
2022-09-07T02:28:06.420Z,100111.03
2022-09-07T02:30:38.448Z,100122.31
2022-09-07T02:33:08.735Z,100127.31
2022-09-07T02:35:39.020Z,100117.31
2022-09-07T02:38:10.062Z,100116.94
2022-09-07T02:40:40.204Z,100123.81
2022-09-07T02:43:12.385Z,100118.50
2022-09-07T02:45:55.577Z,100116.47
2022-09-07T02:48:38.805Z,100108.72
2022-09-07T02:51:16.759Z,100097.13
2022-09-07T02:54:15.432Z,100099.81
2022-09-07T02:57:00.399Z,100106.50
2022-09-07T02:59:41.617Z,100097.91
2022-09-07T03:02:20.014Z,100101.59
2022-09-07T03:04:57.980Z,100104.94
2022-09-07T03:07:35.979Z,100101.78
2022-09-07T03:10:08.515Z,100082.16
2022-09-07T03:12:44.899Z,100108.66
2022-09-07T03:15:17.548Z,100099.34
2022-09-07T03:17:49.003Z,100096.56
2022-09-07T03:20:19.454Z,100102.88
2022-09-07T03:22:51.105Z,100101.81
2022-09-07T03:25:23.132Z,100101.06
2022-09-07T03:27:53.225Z,100105.66
2022-09-07T03:30:23.381Z,100103.66
2022-09-07T03:32:55.579Z,100106.59
2022-09-07T03:35:26.976Z,100099.72
2022-09-07T03:37:57.079Z,100115.84
2022-09-07T03:40:27.148Z,100111.59
2022-09-07T03:42:57.290Z,100116.50
2022-09-07T03:45:27.685Z,100112.38
2022-09-07T03:47:59.219Z,100119.06
2022-09-07T03:50:29.386Z,100114.50
2022-09-07T03:52:59.356Z,100126.34
2022-09-07T03:55:29.264Z,100123.81
2022-09-07T03:57:59.261Z,100121.38
2022-09-07T04:00:29.302Z,100119.91
2022-09-07T04:03:00.583Z,100128.72
2022-09-07T04:05:30.575Z,100130.16
2022-09-07T04:08:01.435Z,100128.19
2022-09-07T04:10:31.295Z,100133.16
2022-09-07T04:13:01.199Z,100137.94
2022-09-07T04:15:31.829Z,100149.13
2022-09-07T04:18:03.387Z,100147.59
2022-09-07T04:20:33.652Z,100149.84
2022-09-07T04:23:03.576Z,100154.16
2022-09-07T04:25:34.867Z,100149.13
2022-09-07T04:28:05.331Z,100153.97
2022-09-07T04:30:36.164Z,100157.34
2022-09-07T04:33:07.639Z,100160.03
2022-09-07T04:35:38.233Z,100155.84
2022-09-07T04:38:09.772Z,100164.44
2022-09-07T04:40:39.836Z,100163.03
2022-09-07T04:43:13.056Z,100171.06
2022-09-07T04:45:43.133Z,100169.38
2022-09-07T04:48:14.398Z,100167.28
2022-09-07T04:50:44.334Z,100172.63
2022-09-07T04:53:14.273Z,100167.25
2022-09-07T04:55:44.289Z,100172.00
2022-09-07T04:58:14.476Z,100176.28
2022-09-07T05:00:44.439Z,100176.81
2022-09-07T05:03:15.799Z,100185.09
2022-09-07T05:05:46.371Z,100181.72
2022-09-07T05:08:16.407Z,100192.56
2022-09-07T05:10:53.023Z,100188.03
2022-09-07T05:13:24.644Z,100182.28
2022-09-07T05:15:55.214Z,100183.63
2022-09-07T05:18:27.246Z,100181.69
2022-09-07T05:20:57.196Z,100180.13
2022-09-07T05:23:27.327Z,100180.94
2022-09-07T05:25:57.490Z,100176.69
2022-09-07T05:28:27.442Z,100185.13
2022-09-07T05:31:19.994Z,100179.19
2022-09-07T05:36:43.722Z,100187.84
2022-09-07T05:39:14.142Z,100185.16
2022-09-07T05:41:44.114Z,100187.22
2022-09-07T05:47:04.393Z,100193.53
2022-09-07T05:49:35.951Z,100191.34
2022-09-07T05:52:05.921Z,100188.03
2022-09-07T05:54:35.997Z,100189.03
2022-09-07T05:57:07.324Z,100185.84
2022-09-07T05:59:37.264Z,100182.78
2022-09-07T06:02:08.366Z,100189.72
2022-09-07T06:04:39.867Z,100189.88
2022-09-07T06:07:28.223Z,100193.75
2022-09-07T06:12:49.277Z,100182.72
2022-09-07T06:15:19.766Z,100192.66
2022-09-07T06:17:49.703Z,100184.00
2022-09-07T06:20:21.231Z,100190.78
2022-09-07T06:22:51.212Z,100190.28
2022-09-07T06:25:21.149Z,100186.66
2022-09-07T06:27:53.925Z,100186.31
2022-09-07T06:30:25.393Z,100176.41
2022-09-07T06:32:55.280Z,100179.03
2022-09-07T06:35:26.890Z,100179.59
2022-09-07T06:37:56.826Z,100188.59
2022-09-07T06:40:26.856Z,100180.97
2022-09-07T06:42:56.720Z,100180.91
2022-09-07T06:45:26.910Z,100183.22
2022-09-07T06:47:57.141Z,100183.13
2022-09-07T06:50:28.951Z,100185.09
2022-09-07T06:55:48.967Z,100191.00
2022-09-07T06:58:19.053Z,100190.44
2022-09-07T07:00:49.298Z,100190.38
2022-09-07T07:03:19.329Z,100193.50
2022-09-07T07:05:56.209Z,100191.63
2022-09-07T07:08:27.232Z,100190.91
2022-09-07T07:11:02.006Z,100192.66
2022-09-07T07:13:32.408Z,100197.69
2022-09-07T07:16:05.958Z,100196.97
2022-09-07T07:18:36.416Z,100208.69
2022-09-07T07:21:09.883Z,100183.44
2022-09-07T07:23:40.241Z,100188.50
2022-09-07T07:26:13.549Z,100202.38
2022-09-07T07:29:00.802Z,100207.16
2022-09-07T07:31:33.293Z,100205.97
2022-09-07T07:34:03.856Z,100203.84
2022-09-07T07:36:35.794Z,100207.25
2022-09-07T07:39:06.027Z,100212.22
2022-09-07T07:44:26.058Z,100202.41
2022-09-07T07:46:55.973Z,100204.03
2022-09-07T07:49:26.237Z,100199.06
2022-09-07T07:54:49.715Z,100204.41
2022-09-07T07:57:19.928Z,100206.34
2022-09-07T07:59:50.412Z,100201.69
2022-09-07T08:02:22.948Z,100201.47
2022-09-07T08:04:53.899Z,100198.09
2022-09-07T08:07:25.198Z,100202.31
2022-09-07T08:09:55.091Z,100158.91
2022-09-07T08:12:29.595Z,100195.63
2022-09-07T08:15:00.408Z,100191.00
2022-09-07T08:17:30.785Z,100193.53
2022-09-07T08:20:01.460Z,100191.63
2022-09-07T08:22:34.838Z,100193.63
2022-09-07T08:25:07.093Z,100180.44
2022-09-07T08:27:37.326Z,100180.97
2022-09-07T08:30:08.936Z,100187.41
2022-09-07T08:32:38.965Z,100181.28
2022-09-07T08:35:09.309Z,100176.03
2022-09-07T08:37:40.669Z,100183.09
2022-09-07T08:40:13.598Z,100179.66
2022-09-07T08:42:56.901Z,100184.91
2022-09-07T08:45:33.360Z,100178.03
2022-09-07T08:48:05.955Z,100174.72
2022-09-07T08:50:46.902Z,100174.63
2022-09-07T08:53:21.119Z,100168.28
2022-09-07T08:55:54.103Z,100163.03
2022-09-07T08:58:48.284Z,100158.38
2022-09-07T09:01:36.698Z,100152.53
2022-09-07T09:04:18.718Z,100158.88
2022-09-07T09:07:02.277Z,100151.22
2022-09-07T09:09:46.038Z,100156.16
2022-09-07T09:12:26.346Z,100150.09
2022-09-07T09:15:11.032Z,100144.94
2022-09-07T09:17:48.124Z,100134.53
2022-09-07T09:20:25.148Z,100122.47
2022-09-07T09:22:58.427Z,100123.34
2022-09-07T09:25:34.687Z,100114.34
2022-09-07T09:28:04.904Z,100114.19
2022-09-07T09:30:34.912Z,100112.09
2022-09-07T09:33:16.768Z,100113.56
2022-09-07T09:35:51.360Z,100113.81
2022-09-07T09:38:35.704Z,100116.97
2022-09-07T09:41:08.841Z,100113.63
2022-09-07T09:43:45.808Z,100114.63
2022-09-07T09:46:23.277Z,100111.91
2022-09-07T09:48:59.616Z,100106.44
2022-09-07T09:54:27.217Z,100106.69
2022-09-07T09:56:58.780Z,100100.88
2022-09-07T10:05:29.541Z,100087.41
2022-09-07T10:07:59.585Z,100082.53
2022-09-07T10:10:31.471Z,100078.53
2022-09-07T10:13:04.449Z,100084.69
2022-09-07T10:15:40.649Z,100073.19
2022-09-07T10:18:23.666Z,100073.19
2022-09-07T10:20:53.604Z,100071.25
2022-09-07T10:23:25.804Z,100070.47
2022-09-07T10:25:56.919Z,100029.81
2022-09-07T10:29:06.439Z,100059.38
2022-09-07T10:31:26.298Z,100058.78
2022-09-07T10:37:00.253Z,100053.53
2022-09-07T10:39:35.854Z,100047.03
2022-09-07T10:42:23.255Z,100046.00
2022-09-07T10:45:04.723Z,100046.63
2022-09-07T10:47:46.945Z,100035.31
2022-09-07T10:50:31.853Z,100032.34
2022-09-07T10:53:39.107Z,100010.13
2022-09-07T10:56:10.055Z,100016.66
2022-09-07T10:59:06.847Z,100022.69
2022-09-07T11:01:50.800Z,100012.00
2022-09-07T11:04:36.488Z,100013.25
2022-09-07T11:07:16.561Z,100010.09
2022-09-07T11:09:58.168Z,100007.59
2022-09-07T11:12:32.551Z,100004.28
2022-09-07T11:15:11.061Z,99997.13
2022-09-07T11:17:50.629Z,100008.19
2022-09-07T11:20:30.987Z,100000.47
2022-09-07T11:23:13.530Z,99990.84
2022-09-07T11:25:55.557Z,99989.53
2022-09-07T11:28:29.255Z,99988.69
2022-09-07T11:31:05.356Z,99989.72
2022-09-07T11:34:23.723Z,99991.22
2022-09-07T11:36:39.699Z,99992.91
2022-09-07T11:39:17.499Z,99994.56
2022-09-07T11:41:55.161Z,99991.22
2022-09-07T11:44:29.795Z,99983.22
2022-09-07T11:47:09.066Z,99973.78
2022-09-07T11:49:40.356Z,99989.09
2022-09-07T11:52:21.652Z,99985.28
2022-09-07T11:54:56.616Z,99974.00
2022-09-07T11:57:40.933Z,99982.34
2022-09-07T12:00:17.538Z,99967.25
2022-09-07T12:03:24.799Z,99962.00
2022-09-07T12:06:28.173Z,99964.38
2022-09-07T12:09:10.634Z,99953.88
2022-09-07T12:12:12.705Z,99950.56
2022-09-07T12:14:57.035Z,99943.38
2022-09-07T12:17:47.204Z,99944.97
2022-09-07T12:20:19.237Z,99943.88
2022-09-07T12:23:05.352Z,99933.91
2022-09-07T12:25:36.499Z,99939.16
2022-09-07T12:28:06.845Z,99940.22
2022-09-07T12:30:59.137Z,99876.16
2022-09-07T12:33:34.699Z,99929.91
2022-09-07T12:36:42.425Z,99930.31
2022-09-07T12:39:28.537Z,99904.78
2022-09-07T12:42:37.801Z,99923.59
2022-09-07T12:45:50.238Z,99923.97
2022-09-07T12:48:34.589Z,99884.16
2022-09-07T12:51:11.010Z,99924.59
2022-09-07T12:53:52.133Z,99925.03
2022-09-07T12:56:39.662Z,99924.03
2022-09-07T12:59:32.207Z,99921.09
2022-09-07T13:02:18.234Z,99917.09
2022-09-07T13:04:58.870Z,99915.78
2022-09-07T13:07:49.177Z,99908.09
2022-09-07T13:10:30.888Z,99907.25
2022-09-07T13:13:08.197Z,99899.78
2022-09-07T13:15:43.097Z,99915.09
2022-09-07T13:18:41.666Z,99904.44
2022-09-07T13:21:33.175Z,99907.03
2022-09-07T13:24:47.411Z,99906.44
2022-09-07T13:27:52.219Z,99890.72
2022-09-07T13:30:28.972Z,99897.44
2022-09-07T13:33:52.723Z,99895.31
2022-09-07T13:36:34.788Z,99884.59
2022-09-07T13:39:08.936Z,99880.16
2022-09-07T13:41:44.456Z,99891.66
2022-09-07T13:44:26.213Z,99885.97
2022-09-07T13:47:07.902Z,99879.47
2022-09-07T13:50:13.201Z,99872.78
2022-09-07T13:53:02.507Z,99880.66
2022-09-07T13:55:39.528Z,99875.41
2022-09-07T13:58:17.946Z,99860.75
2022-09-07T14:00:54.167Z,99861.19
2022-09-07T14:03:27.123Z,99865.31
2022-09-07T14:06:28.289Z,99869.75
2022-09-07T14:09:02.424Z,99869.38
2022-09-07T14:11:41.621Z,99862.22
2022-09-07T14:14:17.783Z,99861.97
2022-09-07T14:16:50.694Z,99868.63
2022-09-07T14:19:24.453Z,99863.56
2022-09-07T14:21:59.064Z,99864.69
2022-09-07T14:24:35.907Z,99867.81
2022-09-07T14:27:07.191Z,99866.16
2022-09-07T14:29:37.943Z,99870.53
2022-09-07T14:32:14.617Z,99873.47
2022-09-07T14:34:45.765Z,99866.16
2022-09-07T14:37:18.204Z,99871.22
2022-09-07T14:39:51.261Z,99865.72
2022-09-07T14:42:23.968Z,99868.91
2022-09-07T14:45:18.518Z,99867.28
2022-09-07T14:47:52.301Z,99865.81
2022-09-07T14:50:24.726Z,99874.41
2022-09-07T14:55:48.171Z,99872.53
2022-09-07T14:58:24.728Z,99869.00
2022-09-07T15:04:01.367Z,99866.28
2022-09-07T15:09:31.046Z,99846.66
2022-09-07T15:12:29.749Z,99863.09
2022-09-07T15:15:24.443Z,99860.00
2022-09-07T15:17:58.998Z,99860.41
2022-09-07T15:20:43.307Z,99855.38
2022-09-07T15:23:14.616Z,99857.94
2022-09-07T15:25:51.095Z,99861.28
2022-09-07T15:34:12.174Z,99858.59
2022-09-07T15:36:43.498Z,99840.59
2022-09-07T15:39:20.402Z,99857.09
2022-09-07T15:41:51.582Z,99847.47
2022-09-07T15:44:26.047Z,99850.84
2022-09-07T15:49:50.589Z,99849.59
2022-09-07T15:52:21.647Z,99846.66
2022-09-07T15:54:51.599Z,99845.00
2022-09-07T16:00:14.186Z,99851.72
2022-09-07T16:05:34.186Z,99841.31
2022-09-07T16:10:55.682Z,99837.75
2022-09-07T16:13:34.301Z,99836.28
2022-09-07T16:16:07.997Z,99830.41
2022-09-07T16:18:39.268Z,99826.03
2022-09-07T16:21:12.308Z,99836.94
2022-09-07T16:23:44.856Z,99841.13
2022-09-07T16:26:16.447Z,99833.38
2022-09-07T16:28:48.728Z,99818.75
2022-09-07T16:31:21.869Z,99840.94
2022-09-07T16:33:52.183Z,99839.03
2022-09-07T16:36:23.603Z,99836.34
2022-09-07T16:38:56.883Z,99840.72
2022-09-07T16:41:29.308Z,99839.03
2022-09-07T16:44:00.112Z,99837.16
2022-09-07T16:46:34.876Z,99836.13
2022-09-07T16:49:07.197Z,99837.56
2022-09-07T16:51:37.267Z,99836.75
2022-09-07T16:54:07.918Z,99836.53
2022-09-07T16:56:39.261Z,99847.63
2022-09-07T16:59:16.039Z,99847.63
2022-09-07T17:01:48.257Z,99863.72
2022-09-07T17:04:18.708Z,99856.19
2022-09-07T17:06:48.620Z,99863.28
2022-09-07T17:09:18.627Z,99869.78
2022-09-07T17:11:48.428Z,99869.38
2022-09-07T17:14:18.328Z,99872.06
2022-09-07T17:16:49.571Z,99878.31
2022-09-07T17:19:36.216Z,99883.16
2022-09-07T17:22:06.075Z,99873.72
2022-09-07T17:24:35.863Z,99887.25
2022-09-07T17:27:06.272Z,99883.03
2022-09-07T17:29:37.762Z,99880.34
2022-09-07T17:32:25.377Z,99886.38
2022-09-07T17:34:56.286Z,99890.13
2022-09-07T17:37:26.183Z,99896.38
2022-09-07T17:39:56.897Z,99895.09
2022-09-07T17:43:38.862Z,99896.75
2022-09-07T17:45:18.415Z,99898.59
2022-09-07T17:47:50.397Z,99905.91
2022-09-07T17:50:20.755Z,99913.63
2022-09-07T17:52:52.968Z,99922.41
2022-09-07T17:55:23.224Z,99924.94
2022-09-07T17:57:53.059Z,99926.84
2022-09-07T18:00:22.973Z,99926.84
2022-09-07T18:02:54.098Z,99923.31
2022-09-07T18:05:24.438Z,99932.69
2022-09-07T18:07:54.515Z,99927.88
2022-09-07T18:10:24.850Z,99944.13
2022-09-07T18:12:55.642Z,99942.03
2022-09-07T18:15:25.672Z,99943.06
2022-09-07T18:17:58.541Z,99954.78
2022-09-07T18:20:28.345Z,99962.47
2022-09-07T18:22:58.084Z,99958.72
2022-09-07T18:25:28.335Z,99961.84
2022-09-07T18:30:49.211Z,99963.47
2022-09-07T18:33:21.179Z,99969.31
2022-09-07T18:35:51.082Z,99972.81
2022-09-07T18:38:20.892Z,99976.31
2022-09-07T18:40:51.119Z,99980.91
2022-09-07T18:43:21.255Z,99975.06
2022-09-07T18:45:51.202Z,99990.06
2022-09-07T18:48:22.370Z,99985.69
2022-09-07T18:50:55.002Z,99988.31
2022-09-07T18:53:25.089Z,99991.22
2022-09-07T18:55:55.288Z,99990.97
2022-09-07T18:58:25.064Z,99989.03
2022-09-07T19:00:58.348Z,99995.69
2022-09-07T19:03:29.683Z,99997.97
2022-09-07T19:06:05.068Z,99992.81
2022-09-07T19:08:36.535Z,99997.91
2022-09-07T19:11:07.930Z,100002.69
2022-09-07T19:13:38.820Z,99994.25
2022-09-07T19:16:12.567Z,100000.97
2022-09-07T19:18:47.940Z,99997.41
2022-09-07T19:21:20.778Z,100000.06
2022-09-07T19:23:56.512Z,99997.75
2022-09-07T19:26:28.151Z,100005.03
2022-09-07T19:29:00.946Z,99985.78
2022-09-07T19:31:32.351Z,100000.38
2022-09-07T19:34:04.056Z,99998.25
2022-09-07T19:36:35.119Z,100003.00
2022-09-07T19:39:05.624Z,100006.50
2022-09-07T19:41:35.565Z,100007.91
2022-09-07T19:44:06.501Z,100006.41
2022-09-07T19:46:36.522Z,100003.63
2022-09-07T19:49:12.068Z,100005.00
2022-09-07T19:51:42.432Z,100009.97
2022-09-07T19:54:13.681Z,100006.41
2022-09-07T19:56:44.836Z,100001.00
2022-09-07T19:59:14.850Z,99986.91
2022-09-07T20:01:47.281Z,100006.34
2022-09-07T20:04:20.565Z,100000.25
2022-09-07T20:06:51.594Z,100009.16
2022-09-07T20:09:21.608Z,100005.53
2022-09-07T20:11:51.439Z,100004.69
2022-09-07T20:14:21.228Z,100004.69
2022-09-07T20:16:51.443Z,100006.72
2022-09-07T20:19:22.687Z,100009.53
2022-09-07T20:21:55.720Z,100009.94
2022-09-07T20:24:25.577Z,100018.78
2022-09-07T20:26:55.589Z,100017.31
2022-09-07T20:29:28.218Z,100007.69
2022-09-07T20:32:00.464Z,100007.50
2022-09-07T20:34:32.365Z,100000.38
2022-09-07T20:37:02.396Z,100010.28
2022-09-07T20:39:36.973Z,100014.69
2022-09-07T20:42:09.073Z,100020.75
2022-09-07T20:44:39.019Z,100016.75
2022-09-07T20:47:09.034Z,100017.78
2022-09-07T20:49:40.617Z,100026.28
2022-09-07T20:52:10.830Z,100023.09
2022-09-07T20:54:40.636Z,100016.75
2022-09-07T20:57:10.578Z,100028.69
2022-09-07T20:59:40.354Z,100026.19
2022-09-07T21:02:10.807Z,100027.38
2022-09-07T21:04:43.406Z,100031.69
2022-09-07T21:07:13.358Z,100027.19
2022-09-07T21:09:43.217Z,100031.78
2022-09-07T21:12:12.978Z,100026.81
2022-09-07T21:14:42.784Z,100031.59
2022-09-07T21:17:12.912Z,100029.91
2022-09-07T21:19:44.308Z,100030.41
2022-09-07T21:22:14.231Z,100028.88
2022-09-07T21:24:44.079Z,100024.97
2022-09-07T21:27:14.240Z,100032.44
2022-09-07T21:29:44.091Z,100026.19
2022-09-07T21:32:13.807Z,100027.94
2022-09-07T21:34:45.009Z,100025.00
2022-09-07T21:37:15.065Z,100021.59
2022-09-07T21:39:44.815Z,100018.34
2022-09-07T21:42:14.909Z,100018.28
2022-09-07T21:44:44.652Z,100017.41
2022-09-07T21:47:14.458Z,100021.63
2022-09-07T21:49:45.993Z,100022.16
2022-09-07T21:52:15.790Z,100015.28
2022-09-07T21:54:45.612Z,100014.59
2022-09-07T21:57:15.621Z,100016.19
2022-09-07T21:59:45.653Z,100016.94
2022-09-07T22:02:15.477Z,100011.53
2022-09-07T22:04:46.764Z,100022.91
2022-09-07T22:07:16.635Z,100021.47
2022-09-07T22:09:47.624Z,100020.47
2022-09-07T22:12:17.762Z,100012.78
2022-09-07T22:14:47.799Z,100020.72
2022-09-07T22:17:17.695Z,100015.59
2022-09-07T22:19:48.942Z,100020.16
2022-09-07T22:22:18.796Z,100017.00
2022-09-07T22:24:49.214Z,100015.66
2022-09-07T22:27:19.102Z,100012.59
2022-09-07T22:29:48.873Z,100016.53
2022-09-07T22:32:18.694Z,100015.19
2022-09-07T22:34:51.689Z,100017.41
2022-09-07T22:37:21.675Z,100009.84
2022-09-07T22:39:51.614Z,100017.31
2022-09-07T22:42:21.467Z,100012.59
2022-09-07T22:44:51.269Z,100017.72
2022-09-07T22:47:21.163Z,100014.59
2022-09-07T22:49:52.662Z,100010.38
2022-09-07T22:52:22.535Z,100005.81
2022-09-07T22:54:52.363Z,100008.88
2022-09-07T22:57:23.424Z,100012.84
2022-09-07T22:59:53.480Z,100006.13
2022-09-07T23:02:23.305Z,100006.69
2022-09-07T23:04:54.729Z,100011.09
2022-09-07T23:07:24.692Z,100007.19
2022-09-07T23:09:54.759Z,100000.31
2022-09-07T23:12:25.011Z,99997.31
2022-09-07T23:14:55.065Z,99986.50
2022-09-07T23:17:24.968Z,99990.22
2022-09-07T23:19:56.803Z,99986.50
2022-09-07T23:22:26.691Z,99986.50
2022-09-07T23:24:56.524Z,99989.72
2022-09-07T23:27:26.706Z,99992.63
2022-09-07T23:29:56.616Z,99986.34
2022-09-07T23:32:26.384Z,99971.31
2022-09-07T23:34:57.559Z,99976.72
2022-09-07T23:37:27.407Z,99974.53
2022-09-07T23:39:57.713Z,99978.78
2022-09-07T23:42:27.757Z,99971.69
2022-09-07T23:44:57.586Z,99965.97
2022-09-07T23:47:27.627Z,99976.75
2022-09-07T23:49:58.823Z,99968.53
2022-09-07T23:52:28.782Z,99968.00
2022-09-07T23:54:58.757Z,99958.75
2022-09-07T23:57:28.964Z,99964.97
2022-09-07T23:59:59.434Z,99962.13
